sensor_id;sensor_type;location;lat;lon;timestamp;pressure;altitude;pressure_sealevel;temperature;humidity
36932;BME280;22847;42.654;23.370;2023-05-20T00:00:46;94973.03;;;15.48;70.84
36932;BME280;22847;42.654;23.370;2023-05-20T00:03:18;94815.41;;;14.44;70.95
36932;BME280;22847;42.654;23.370;2023-05-20T00:05:47;94984.72;;;15.53;71.51
36932;BME280;22847;42.654;23.370;2023-05-20T00:08:12;94814.22;;;14.47;71.44
36932;BME280;22847;42.654;23.370;2023-05-20T00:10:38;94929.69;;;15.19;71.45
36932;BME280;22847;42.654;23.370;2023-05-20T00:13:04;94805.19;;;14.33;71.68
36932;BME280;22847;42.654;23.370;2023-05-20T00:15:30;94980.75;;;15.01;73.63
36932;BME280;22847;42.654;23.370;2023-05-20T00:17:56;94986.03;;;15.17;72.99
36932;BME280;22847;42.654;23.370;2023-05-20T00:20:22;94978.78;;;15.11;73.10
36932;BME280;22847;42.654;23.370;2023-05-20T00:22:47;94998.47;;;15.23;73.25
36932;BME280;22847;42.654;23.370;2023-05-20T00:25:13;94961.72;;;15.07;73.30
36932;BME280;22847;42.654;23.370;2023-05-20T00:27:39;94991.56;;;15.22;73.41
36932;BME280;22847;42.654;23.370;2023-05-20T00:30:06;94940.06;;;14.89;73.81
36932;BME280;22847;42.654;23.370;2023-05-20T00:32:32;94973.88;;;15.08;73.92
36932;BME280;22847;42.654;23.370;2023-05-20T00:34:58;94938.06;;;14.66;73.87
36932;BME280;22847;42.654;23.370;2023-05-20T00:37:23;94999.13;;;15.01;73.51
36932;BME280;22847;42.654;23.370;2023-05-20T00:39:49;94932.19;;;14.81;73.44
36932;BME280;22847;42.654;23.370;2023-05-20T00:42:25;94980.25;;;15.05;73.50
36932;BME280;22847;42.654;23.370;2023-05-20T00:44:51;94959.56;;;14.86;73.48
36932;BME280;22847;42.654;23.370;2023-05-20T00:47:19;94927.09;;;14.79;73.90
36932;BME280;22847;42.654;23.370;2023-05-20T00:49:48;94931.50;;;14.62;73.72
36932;BME280;22847;42.654;23.370;2023-05-20T00:52:14;94919.69;;;14.83;73.48
36932;BME280;22847;42.654;23.370;2023-05-20T00:54:40;94958.94;;;14.84;73.79
36932;BME280;22847;42.654;23.370;2023-05-20T00:57:07;94921.03;;;14.95;72.97
36932;BME280;22847;42.654;23.370;2023-05-20T00:59:34;94957.44;;;14.98;73.42
36932;BME280;22847;42.654;23.370;2023-05-20T01:02:00;94936.28;;;14.75;72.84
36932;BME280;22847;42.654;23.370;2023-05-20T01:04:25;94808.13;;;14.06;72.49
36932;BME280;22847;42.654;23.370;2023-05-20T01:06:51;94902.81;;;14.61;72.52
36932;BME280;22847;42.654;23.370;2023-05-20T01:09:17;94954.66;;;14.59;73.77
36932;BME280;22847;42.654;23.370;2023-05-20T01:11:53;94843.66;;;13.42;75.90
36932;BME280;22847;42.654;23.370;2023-05-20T01:14:21;94967.25;;;13.71;78.19
36932;BME280;22847;42.654;23.370;2023-05-20T01:16:49;94963.91;;;13.61;79.61
36932;BME280;22847;42.654;23.370;2023-05-20T01:19:37;94964.88;;;13.86;79.01
36932;BME280;22847;42.654;23.370;2023-05-20T01:22:05;94907.34;;;13.76;77.83
36932;BME280;22847;42.654;23.370;2023-05-20T01:24:31;94941.00;;;14.05;77.32
36932;BME280;22847;42.654;23.370;2023-05-20T01:26:57;94961.34;;;14.45;76.27
36932;BME280;22847;42.654;23.370;2023-05-20T01:29:25;94957.84;;;14.37;76.03
36932;BME280;22847;42.654;23.370;2023-05-20T01:31:52;94967.25;;;14.63;74.93
36932;BME280;22847;42.654;23.370;2023-05-20T01:34:19;94965.94;;;14.51;74.75
36932;BME280;22847;42.654;23.370;2023-05-20T01:36:45;94939.63;;;14.35;74.71
36932;BME280;22847;42.654;23.370;2023-05-20T01:39:12;94954.06;;;14.31;74.32
36932;BME280;22847;42.654;23.370;2023-05-20T01:41:38;94986.44;;;14.64;74.16
36932;BME280;22847;42.654;23.370;2023-05-20T01:44:04;94818.16;;;13.60;74.93
36932;BME280;22847;42.654;23.370;2023-05-20T01:46:33;94770.00;;;13.45;74.38
36932;BME280;22847;42.654;23.370;2023-05-20T01:48:59;94849.38;;;13.88;74.56
36932;BME280;22847;42.654;23.370;2023-05-20T01:51:24;94983.47;;;14.51;74.87
36932;BME280;22847;42.654;23.370;2023-05-20T01:53:50;94916.28;;;14.08;74.98
36932;BME280;22847;42.654;23.370;2023-05-20T01:56:16;94946.25;;;14.47;74.40
36932;BME280;22847;42.654;23.370;2023-05-20T01:58:41;94953.78;;;14.50;74.70
36932;BME280;22847;42.654;23.370;2023-05-20T02:01:07;94942.25;;;14.35;74.41
36932;BME280;22847;42.654;23.370;2023-05-20T02:03:32;94846.78;;;13.96;73.69
36932;BME280;22847;42.654;23.370;2023-05-20T02:05:57;94860.41;;;14.07;73.23
36932;BME280;22847;42.654;23.370;2023-05-20T02:08:23;94957.09;;;14.68;73.10
36932;BME280;22847;42.654;23.370;2023-05-20T02:10:48;94909.03;;;14.44;72.80
36932;BME280;22847;42.654;23.370;2023-05-20T02:13:14;94942.66;;;14.56;73.62
36932;BME280;22847;42.654;23.370;2023-05-20T02:15:40;94757.66;;;12.87;75.02
36932;BME280;22847;42.654;23.370;2023-05-20T02:18:06;94944.75;;;13.95;75.84
36932;BME280;22847;42.654;23.370;2023-05-20T02:20:34;94948.94;;;14.21;74.87
36932;BME280;22847;42.654;23.370;2023-05-20T02:23:00;94788.88;;;13.15;74.30
36932;BME280;22847;42.654;23.370;2023-05-20T02:25:25;94925.81;;;14.17;74.41
36932;BME280;22847;42.654;23.370;2023-05-20T02:27:51;94832.41;;;13.50;74.05
36932;BME280;22847;42.654;23.370;2023-05-20T02:30:16;94969.13;;;14.29;74.22
36932;BME280;22847;42.654;23.370;2023-05-20T02:32:42;94968.47;;;14.27;74.05
36932;BME280;22847;42.654;23.370;2023-05-20T02:35:07;94890.34;;;13.97;73.93
36932;BME280;22847;42.654;23.370;2023-05-20T02:37:32;94881.53;;;14.06;73.73
36932;BME280;22847;42.654;23.370;2023-05-20T02:39:58;94932.16;;;14.06;73.80
36932;BME280;22847;42.654;23.370;2023-05-20T02:42:24;94908.78;;;14.13;73.88
36932;BME280;22847;42.654;23.370;2023-05-20T02:44:49;94912.34;;;14.04;74.03
36932;BME280;22847;42.654;23.370;2023-05-20T02:47:14;94924.00;;;14.09;73.95
36932;BME280;22847;42.654;23.370;2023-05-20T02:49:40;94933.69;;;14.09;73.13
36932;BME280;22847;42.654;23.370;2023-05-20T02:52:05;94801.22;;;13.30;73.22
36932;BME280;22847;42.654;23.370;2023-05-20T02:54:33;94557.53;;;11.82;72.80
36932;BME280;22847;42.654;23.370;2023-05-20T02:56:58;94934.53;;;14.25;72.77
36932;BME280;22847;42.654;23.370;2023-05-20T02:59:24;94796.69;;;13.40;72.43
36932;BME280;22847;42.654;23.370;2023-05-20T03:01:49;94915.34;;;14.17;72.29
36932;BME280;22847;42.654;23.370;2023-05-20T03:04:15;94757.75;;;13.12;72.43
36932;BME280;22847;42.654;23.370;2023-05-20T03:06:43;94947.78;;;14.24;72.69
36932;BME280;22847;42.654;23.370;2023-05-20T03:09:10;94948.44;;;14.18;72.84
36932;BME280;22847;42.654;23.370;2023-05-20T03:11:35;94897.50;;;13.78;73.31
36932;BME280;22847;42.654;23.370;2023-05-20T03:14:01;94947.09;;;14.14;73.23
36932;BME280;22847;42.654;23.370;2023-05-20T03:16:26;94985.81;;;14.20;73.08
36932;BME280;22847;42.654;23.370;2023-05-20T03:18:52;94959.84;;;14.01;73.57
36932;BME280;22847;42.654;23.370;2023-05-20T03:21:18;94956.78;;;13.20;76.25
36932;BME280;22847;42.654;23.370;2023-05-20T03:23:44;94797.59;;;12.46;75.84
36932;BME280;22847;42.654;23.370;2023-05-20T03:26:09;94913.97;;;13.29;75.90
36932;BME280;22847;42.654;23.370;2023-05-20T03:28:35;94929.81;;;13.53;75.55
36932;BME280;22847;42.654;23.370;2023-05-20T03:31:01;94876.06;;;13.41;74.62
36932;BME280;22847;42.654;23.370;2023-05-20T03:33:26;94932.78;;;13.92;73.81
36932;BME280;22847;42.654;23.370;2023-05-20T03:35:52;94990.41;;;14.18;73.76
36932;BME280;22847;42.654;23.370;2023-05-20T03:38:17;94940.72;;;14.08;73.58
36932;BME280;22847;42.654;23.370;2023-05-20T03:40:42;94922.97;;;14.02;73.07
36932;BME280;22847;42.654;23.370;2023-05-20T03:43:08;94806.81;;;13.35;73.19
36932;BME280;22847;42.654;23.370;2023-05-20T03:45:33;94853.41;;;13.66;73.14
36932;BME280;22847;42.654;23.370;2023-05-20T03:47:59;94940.53;;;14.10;73.96
36932;BME280;22847;42.654;23.370;2023-05-20T03:50:24;94884.75;;;13.83;73.58
36932;BME280;22847;42.654;23.370;2023-05-20T03:52:49;94980.69;;;14.44;73.76
36932;BME280;22847;42.654;23.370;2023-05-20T03:55:15;94964.69;;;14.21;73.66
36932;BME280;22847;42.654;23.370;2023-05-20T03:57:41;94971.50;;;14.40;73.62
36932;BME280;22847;42.654;23.370;2023-05-20T04:00:07;94953.88;;;14.24;73.11
36932;BME280;22847;42.654;23.370;2023-05-20T04:02:36;94983.22;;;14.28;71.86
36932;BME280;22847;42.654;23.370;2023-05-20T04:05:02;94993.94;;;14.43;70.78
36932;BME280;22847;42.654;23.370;2023-05-20T04:07:28;95000.13;;;14.92;68.73
36932;BME280;22847;42.654;23.370;2023-05-20T04:09:54;94973.84;;;15.32;66.57
36932;BME280;22847;42.654;23.370;2023-05-20T04:12:19;94998.16;;;15.50;66.00
36932;BME280;22847;42.654;23.370;2023-05-20T04:14:45;94858.34;;;14.76;64.83
36932;BME280;22847;42.654;23.370;2023-05-20T04:17:10;95004.91;;;15.61;65.70
36932;BME280;22847;42.654;23.370;2023-05-20T04:19:36;95038.94;;;16.18;63.66
36932;BME280;22847;42.654;23.370;2023-05-20T04:22:03;94992.38;;;15.63;64.60
36932;BME280;22847;42.654;23.370;2023-05-20T04:24:28;94979.84;;;16.67;61.62
36932;BME280;22847;42.654;23.370;2023-05-20T04:26:54;94994.34;;;16.63;61.25
36932;BME280;22847;42.654;23.370;2023-05-20T04:29:19;94850.25;;;16.49;59.43
36932;BME280;22847;42.654;23.370;2023-05-20T04:31:45;94807.59;;;16.16;59.12
36932;BME280;22847;42.654;23.370;2023-05-20T04:34:11;94980.28;;;17.76;57.38
36932;BME280;22847;42.654;23.370;2023-05-20T04:36:37;94960.81;;;17.92;56.64
36932;BME280;22847;42.654;23.370;2023-05-20T04:39:03;94988.75;;;18.45;55.95
36932;BME280;22847;42.654;23.370;2023-05-20T04:41:29;94980.16;;;17.55;58.29
36932;BME280;22847;42.654;23.370;2023-05-20T04:43:55;95004.88;;;18.36;55.74
36932;BME280;22847;42.654;23.370;2023-05-20T04:46:25;94999.00;;;18.69;55.12
36932;BME280;22847;42.654;23.370;2023-05-20T04:48:51;94927.78;;;18.47;54.38
36932;BME280;22847;42.654;23.370;2023-05-20T04:51:16;94853.41;;;18.58;53.20
36932;BME280;22847;42.654;23.370;2023-05-20T04:53:42;94888.22;;;19.10;52.42
36932;BME280;22847;42.654;23.370;2023-05-20T04:56:10;95001.75;;;19.89;52.34
36932;BME280;22847;42.654;23.370;2023-05-20T04:58:35;95028.84;;;19.91;52.83
36932;BME280;22847;42.654;23.370;2023-05-20T05:01:01;94977.38;;;20.00;52.64
36932;BME280;22847;42.654;23.370;2023-05-20T05:03:27;94912.72;;;19.47;52.80
36932;BME280;22847;42.654;23.370;2023-05-20T05:05:56;94965.78;;;20.01;52.13
36932;BME280;22847;42.654;23.370;2023-05-20T05:08:21;95026.41;;;20.58;50.97
36932;BME280;22847;42.654;23.370;2023-05-20T05:10:47;94885.56;;;20.00;49.51
36932;BME280;22847;42.654;23.370;2023-05-20T05:13:12;94859.47;;;19.97;50.18
36932;BME280;22847;42.654;23.370;2023-05-20T05:15:38;94866.25;;;20.07;49.98
36932;BME280;22847;42.654;23.370;2023-05-20T05:18:03;94997.28;;;21.25;49.21
36932;BME280;22847;42.654;23.370;2023-05-20T05:20:28;94850.59;;;20.12;50.11
36932;BME280;22847;42.654;23.370;2023-05-20T05:22:54;94889.47;;;20.72;49.90
36932;BME280;22847;42.654;23.370;2023-05-20T05:25:19;94992.41;;;21.62;49.81
36932;BME280;22847;42.654;23.370;2023-05-20T05:27:45;94989.13;;;21.66;49.07
36932;BME280;22847;42.654;23.370;2023-05-20T05:30:13;94916.50;;;21.15;48.63
36932;BME280;22847;42.654;23.370;2023-05-20T05:32:38;94906.28;;;21.38;49.29
36932;BME280;22847;42.654;23.370;2023-05-20T05:35:04;94837.31;;;21.05;49.40
36932;BME280;22847;42.654;23.370;2023-05-20T05:37:30;94980.16;;;21.94;49.95
36932;BME280;22847;42.654;23.370;2023-05-20T05:39:55;94944.41;;;22.03;49.00
36932;BME280;22847;42.654;23.370;2023-05-20T05:42:20;95004.41;;;22.37;48.95
36932;BME280;22847;42.654;23.370;2023-05-20T05:44:47;94980.63;;;22.55;48.56
36932;BME280;22847;42.654;23.370;2023-05-20T05:47:13;94826.81;;;21.76;47.29
36932;BME280;22847;42.654;23.370;2023-05-20T05:49:38;94929.91;;;22.56;47.14
36932;BME280;22847;42.654;23.370;2023-05-20T05:52:04;95007.47;;;22.98;48.81
36932;BME280;22847;42.654;23.370;2023-05-20T05:54:29;94885.50;;;22.63;47.80
36932;BME280;22847;42.654;23.370;2023-05-20T05:56:55;94987.47;;;23.20;46.98
36932;BME280;22847;42.654;23.370;2023-05-20T05:59:23;94918.25;;;22.57;46.93
36932;BME280;22847;42.654;23.370;2023-05-20T06:01:48;94983.16;;;23.26;46.68
36932;BME280;22847;42.654;23.370;2023-05-20T06:04:14;94975.69;;;23.41;46.19
36932;BME280;22847;42.654;23.370;2023-05-20T06:06:39;94963.19;;;23.41;47.32
36932;BME280;22847;42.654;23.370;2023-05-20T06:09:05;94966.59;;;23.80;45.59
36932;BME280;22847;42.654;23.370;2023-05-20T06:11:31;94822.91;;;22.99;45.20
36932;BME280;22847;42.654;23.370;2023-05-20T06:13:56;94805.56;;;22.96;45.73
36932;BME280;22847;42.654;23.370;2023-05-20T06:16:22;94957.94;;;24.27;44.55
36932;BME280;22847;42.654;23.370;2023-05-20T06:18:48;94834.09;;;23.75;45.24
36932;BME280;22847;42.654;23.370;2023-05-20T06:21:15;94946.19;;;24.83;44.26
36932;BME280;22847;42.654;23.370;2023-05-20T06:23:40;94912.09;;;24.55;43.57
36932;BME280;22847;42.654;23.370;2023-05-20T06:26:05;94848.53;;;24.40;42.09
36932;BME280;22847;42.654;23.370;2023-05-20T06:28:31;94953.63;;;24.08;42.20
36932;BME280;22847;42.654;23.370;2023-05-20T06:30:56;94966.84;;;24.39;43.17
36932;BME280;22847;42.654;23.370;2023-05-20T06:33:22;94933.66;;;24.54;41.67
36932;BME280;22847;42.654;23.370;2023-05-20T06:35:55;94939.47;;;23.89;42.88
36932;BME280;22847;42.654;23.370;2023-05-20T06:38:20;94948.94;;;24.04;41.41
36932;BME280;22847;42.654;23.370;2023-05-20T06:40:47;94941.16;;;24.27;41.33
36932;BME280;22847;42.654;23.370;2023-05-20T06:43:13;94908.19;;;24.39;41.80
36932;BME280;22847;42.654;23.370;2023-05-20T06:45:39;94948.44;;;24.86;40.42
36932;BME280;22847;42.654;23.370;2023-05-20T06:48:05;94944.28;;;24.90;39.74
36932;BME280;22847;42.654;23.370;2023-05-20T06:50:30;94893.16;;;24.93;38.57
36932;BME280;22847;42.654;23.370;2023-05-20T06:52:55;94811.72;;;24.72;38.58
36932;BME280;22847;42.654;23.370;2023-05-20T06:55:21;94809.88;;;25.03;37.51
36932;BME280;22847;42.654;23.370;2023-05-20T06:57:46;94943.94;;;25.69;37.74
36932;BME280;22847;42.654;23.370;2023-05-20T07:00:12;94866.38;;;25.11;37.77
36932;BME280;22847;42.654;23.370;2023-05-20T07:02:38;94947.44;;;25.93;37.41
36932;BME280;22847;42.654;23.370;2023-05-20T07:05:05;94940.56;;;26.09;36.90
36932;BME280;22847;42.654;23.370;2023-05-20T07:07:31;94936.16;;;25.80;37.06
36932;BME280;22847;42.654;23.370;2023-05-20T07:09:57;94927.84;;;25.35;38.11
36932;BME280;22847;42.654;23.370;2023-05-20T07:12:22;94936.41;;;24.95;37.91
36932;BME280;22847;42.654;23.370;2023-05-20T07:14:48;94954.50;;;24.75;39.99
36932;BME280;22847;42.654;23.370;2023-05-20T07:17:13;94932.75;;;24.23;39.32
36932;BME280;22847;42.654;23.370;2023-05-20T07:19:39;94935.00;;;24.26;40.70
36932;BME280;22847;42.654;23.370;2023-05-20T07:22:04;94947.81;;;25.02;37.87
36932;BME280;22847;42.654;23.370;2023-05-20T07:24:30;94790.91;;;24.39;38.98
36932;BME280;22847;42.654;23.370;2023-05-20T07:26:55;94794.25;;;24.76;37.07
36932;BME280;22847;42.654;23.370;2023-05-20T07:29:21;94744.69;;;23.68;37.37
36932;BME280;22847;42.654;23.370;2023-05-20T07:31:46;94916.75;;;25.19;38.04
36932;BME280;22847;42.654;23.370;2023-05-20T07:34:12;94849.94;;;23.21;38.83
36932;BME280;22847;42.654;23.370;2023-05-20T07:36:37;94933.72;;;24.47;38.22
36932;BME280;22847;42.654;23.370;2023-05-20T07:39:03;94935.53;;;25.13;37.82
36932;BME280;22847;42.654;23.370;2023-05-20T07:41:28;94901.81;;;25.30;36.42
36932;BME280;22847;42.654;23.370;2023-05-20T07:43:53;94936.63;;;25.65;36.73
36932;BME280;22847;42.654;23.370;2023-05-20T07:46:19;94918.94;;;24.81;37.90
36932;BME280;22847;42.654;23.370;2023-05-20T07:48:45;94801.38;;;24.53;37.66
36932;BME280;22847;42.654;23.370;2023-05-20T07:51:11;94893.97;;;25.05;37.40
36932;BME280;22847;42.654;23.370;2023-05-20T07:53:36;94926.16;;;25.63;37.04
36932;BME280;22847;42.654;23.370;2023-05-20T07:56:02;94928.25;;;25.96;37.27
36932;BME280;22847;42.654;23.370;2023-05-20T07:58:27;94947.41;;;25.82;36.83
36932;BME280;22847;42.654;23.370;2023-05-20T08:00:53;94923.59;;;26.27;36.06
36932;BME280;22847;42.654;23.370;2023-05-20T08:03:18;94924.53;;;25.97;36.19
36932;BME280;22847;42.654;23.370;2023-05-20T08:05:44;94922.31;;;25.94;36.25
36932;BME280;22847;42.654;23.370;2023-05-20T08:08:09;94775.88;;;25.45;36.60
36932;BME280;22847;42.654;23.370;2023-05-20T08:10:35;94917.44;;;25.56;35.87
36932;BME280;22847;42.654;23.370;2023-05-20T08:13:01;94913.97;;;25.79;36.03
36932;BME280;22847;42.654;23.370;2023-05-20T08:15:26;94910.56;;;26.18;35.90
36932;BME280;22847;42.654;23.370;2023-05-20T08:17:52;94783.31;;;25.54;36.36
36932;BME280;22847;42.654;23.370;2023-05-20T08:20:18;94908.22;;;26.85;36.63
36932;BME280;22847;42.654;23.370;2023-05-20T08:22:43;94887.22;;;26.26;36.87
36932;BME280;22847;42.654;23.370;2023-05-20T08:25:09;94841.13;;;24.24;38.93
36932;BME280;22847;42.654;23.370;2023-05-20T08:27:35;94779.47;;;25.15;38.31
36932;BME280;22847;42.654;23.370;2023-05-20T08:30:03;94784.69;;;23.18;38.80
36932;BME280;22847;42.654;23.370;2023-05-20T08:32:28;94788.19;;;24.10;37.89
36932;BME280;22847;42.654;23.370;2023-05-20T08:34:54;94913.84;;;23.39;39.66
36932;BME280;22847;42.654;23.370;2023-05-20T08:37:19;94776.88;;;22.74;40.49
36932;BME280;22847;42.654;23.370;2023-05-20T08:39:45;94922.97;;;24.72;38.79
36932;BME280;22847;42.654;23.370;2023-05-20T08:42:12;94776.78;;;24.92;37.64
36932;BME280;22847;42.654;23.370;2023-05-20T08:44:39;94896.88;;;26.15;36.16
36932;BME280;22847;42.654;23.370;2023-05-20T08:47:06;94792.59;;;25.75;35.98
36932;BME280;22847;42.654;23.370;2023-05-20T08:49:32;94900.34;;;25.81;37.28
36932;BME280;22847;42.654;23.370;2023-05-20T08:51:59;94901.38;;;26.38;38.08
36932;BME280;22847;42.654;23.370;2023-05-20T08:54:35;94909.38;;;25.45;38.05
36932;BME280;22847;42.654;23.370;2023-05-20T08:57:05;94900.25;;;26.10;38.01
36932;BME280;22847;42.654;23.370;2023-05-20T08:59:30;94907.41;;;26.45;37.59
36932;BME280;22847;42.654;23.370;2023-05-20T09:01:56;94905.44;;;26.40;36.09
36932;BME280;22847;42.654;23.370;2023-05-20T09:04:21;94899.19;;;26.11;37.23
36932;BME280;22847;42.654;23.370;2023-05-20T09:06:49;94895.94;;;26.09;38.04
36932;BME280;22847;42.654;23.370;2023-05-20T09:09:14;94758.72;;;24.53;37.39
36932;BME280;22847;42.654;23.370;2023-05-20T09:11:40;94900.88;;;25.24;37.41
36932;BME280;22847;42.654;23.370;2023-05-20T09:14:06;94882.94;;;25.55;37.56
36932;BME280;22847;42.654;23.370;2023-05-20T09:16:32;94845.09;;;25.69;37.63
36932;BME280;22847;42.654;23.370;2023-05-20T09:18:58;94740.69;;;25.48;38.57
36932;BME280;22847;42.654;23.370;2023-05-20T09:21:28;94885.59;;;26.25;36.74
36932;BME280;22847;42.654;23.370;2023-05-20T09:23:54;94878.91;;;25.75;36.34
36932;BME280;22847;42.654;23.370;2023-05-20T09:26:26;94861.16;;;26.33;36.55
36932;BME280;22847;42.654;23.370;2023-05-20T09:28:51;94877.41;;;24.25;39.73
36932;BME280;22847;42.654;23.370;2023-05-20T09:31:16;94851.03;;;24.95;38.61
36932;BME280;22847;42.654;23.370;2023-05-20T09:33:42;94837.84;;;25.23;39.66
36932;BME280;22847;42.654;23.370;2023-05-20T09:36:09;94872.97;;;25.73;37.83
36932;BME280;22847;42.654;23.370;2023-05-20T09:38:38;94862.97;;;25.92;38.90
36932;BME280;22847;42.654;23.370;2023-05-20T09:41:10;94874.88;;;26.36;36.81
36932;BME280;22847;42.654;23.370;2023-05-20T09:43:38;94851.72;;;26.42;36.25
36932;BME280;22847;42.654;23.370;2023-05-20T09:46:04;94857.25;;;26.24;37.75
36932;BME280;22847;42.654;23.370;2023-05-20T09:48:30;94815.22;;;25.03;37.31
36932;BME280;22847;42.654;23.370;2023-05-20T09:50:56;94881.78;;;25.86;37.98
36932;BME280;22847;42.654;23.370;2023-05-20T09:53:25;94843.06;;;25.07;40.24
36932;BME280;22847;42.654;23.370;2023-05-20T09:55:52;94801.63;;;24.33;40.37
36932;BME280;22847;42.654;23.370;2023-05-20T09:58:19;94802.19;;;23.87;41.42
36932;BME280;22847;42.654;23.370;2023-05-20T10:00:45;94842.25;;;25.06;40.89
36932;BME280;22847;42.654;23.370;2023-05-20T10:03:11;94825.94;;;25.61;40.00
36932;BME280;22847;42.654;23.370;2023-05-20T10:05:44;94816.88;;;25.39;38.01
36932;BME280;22847;42.654;23.370;2023-05-20T10:19:28;94793.19;;;24.77;37.83
36932;BME280;22847;42.654;23.370;2023-05-20T10:21:57;94686.41;;;23.41;37.67
36932;BME280;22847;42.654;23.370;2023-05-20T10:24:29;94807.34;;;24.66;38.51
36932;BME280;22847;42.654;23.370;2023-05-20T10:26:57;94706.84;;;23.04;39.34
36932;BME280;22847;42.654;23.370;2023-05-20T10:29:24;94787.28;;;23.68;38.88
36932;BME280;22847;42.654;23.370;2023-05-20T10:31:51;94806.16;;;24.32;37.66
36932;BME280;22847;42.654;23.370;2023-05-20T10:34:21;94809.91;;;23.59;39.53
36932;BME280;22847;42.654;23.370;2023-05-20T10:36:57;94800.94;;;24.26;38.32
36932;BME280;22847;42.654;23.370;2023-05-20T10:39:30;94806.59;;;24.89;36.05
36932;BME280;22847;42.654;23.370;2023-05-20T10:42:08;94799.63;;;24.88;36.45
36932;BME280;22847;42.654;23.370;2023-05-20T10:44:44;94785.38;;;25.06;35.82
36932;BME280;22847;42.654;23.370;2023-05-20T10:47:11;94796.38;;;24.44;36.78
36932;BME280;22847;42.654;23.370;2023-05-20T10:49:46;94774.28;;;24.26;37.67
36932;BME280;22847;42.654;23.370;2023-05-20T10:52:18;94741.75;;;24.35;37.56
36932;BME280;22847;42.654;23.370;2023-05-20T10:55:02;94781.47;;;24.67;37.40
36932;BME280;22847;42.654;23.370;2023-05-20T10:57:29;94791.28;;;24.55;37.25
36932;BME280;22847;42.654;23.370;2023-05-20T10:59:55;94772.25;;;24.51;37.85
36932;BME280;22847;42.654;23.370;2023-05-20T11:02:21;94796.09;;;24.34;37.30
36932;BME280;22847;42.654;23.370;2023-05-20T11:04:55;94622.94;;;22.65;38.88
36932;BME280;22847;42.654;23.370;2023-05-20T11:07:26;94728.88;;;23.11;38.93
36932;BME280;22847;42.654;23.370;2023-05-20T11:09:53;94630.97;;;23.02;38.18
36932;BME280;22847;42.654;23.370;2023-05-20T11:12:20;94741.63;;;24.30;36.88
36932;BME280;22847;42.654;23.370;2023-05-20T11:14:47;94633.63;;;23.02;36.92
36932;BME280;22847;42.654;23.370;2023-05-20T11:17:13;94734.41;;;22.92;37.83
36932;BME280;22847;42.654;23.370;2023-05-20T11:19:38;94774.13;;;23.73;37.47
36932;BME280;22847;42.654;23.370;2023-05-20T11:22:06;94739.47;;;23.36;37.76
36932;BME280;22847;42.654;23.370;2023-05-20T11:24:32;94691.53;;;22.01;39.70
36932;BME280;22847;42.654;23.370;2023-05-20T11:26:59;94724.97;;;22.08;40.30
36932;BME280;22847;42.654;23.370;2023-05-20T11:29:25;94620.31;;;21.85;40.10
36932;BME280;22847;42.654;23.370;2023-05-20T11:31:51;94773.44;;;22.35;40.38
36932;BME280;22847;42.654;23.370;2023-05-20T11:34:23;94727.44;;;21.65;41.29
36932;BME280;22847;42.654;23.370;2023-05-20T11:36:56;94731.59;;;22.55;40.47
36932;BME280;22847;42.654;23.370;2023-05-20T11:39:21;94736.28;;;23.28;39.65
36932;BME280;22847;42.654;23.370;2023-05-20T11:41:47;94761.84;;;23.53;38.66
36932;BME280;22847;42.654;23.370;2023-05-20T11:44:12;94759.97;;;22.61;39.52
36932;BME280;22847;42.654;23.370;2023-05-20T11:49:07;94730.09;;;22.10;40.32
36932;BME280;22847;42.654;23.370;2023-05-20T11:51:33;94709.88;;;22.34;40.03
36932;BME280;22847;42.654;23.370;2023-05-20T11:54:00;94732.25;;;22.51;40.09
36932;BME280;22847;42.654;23.370;2023-05-20T11:56:30;94739.41;;;22.50;39.85
36932;BME280;22847;42.654;23.370;2023-05-20T11:58:59;94737.75;;;22.56;40.28
36932;BME280;22847;42.654;23.370;2023-05-20T12:01:25;94742.47;;;23.03;39.40
36932;BME280;22847;42.654;23.370;2023-05-20T12:03:52;94696.69;;;22.77;39.21
36932;BME280;22847;42.654;23.370;2023-05-20T12:06:18;94738.63;;;22.75;40.39
36932;BME280;22847;42.654;23.370;2023-05-20T12:08:43;94667.50;;;22.45;40.77
36932;BME280;22847;42.654;23.370;2023-05-20T12:11:09;94712.28;;;22.42;41.17
36932;BME280;22847;42.654;23.370;2023-05-20T12:13:38;94720.09;;;22.05;42.50
36932;BME280;22847;42.654;23.370;2023-05-20T12:16:04;94728.06;;;22.37;41.59
36932;BME280;22847;42.654;23.370;2023-05-20T12:18:30;94621.72;;;21.11;43.70
36932;BME280;22847;42.654;23.370;2023-05-20T12:20:57;94704.13;;;21.67;44.59
36932;BME280;22847;42.654;23.370;2023-05-20T12:23:23;94720.06;;;20.90;46.22
36932;BME280;22847;42.654;23.370;2023-05-20T12:25:48;94742.91;;;20.98;46.00
36932;BME280;22847;42.654;23.370;2023-05-20T12:28:14;94626.41;;;19.38;47.58
36932;BME280;22847;42.654;23.370;2023-05-20T12:30:41;94792.97;;;20.27;47.64
36932;BME280;22847;42.654;23.370;2023-05-20T12:33:06;94776.97;;;19.87;48.19
36932;BME280;22847;42.654;23.370;2023-05-20T12:38:02;94675.00;;;18.55;52.84
36932;BME280;22847;42.654;23.370;2023-05-20T12:40:28;94798.06;;;19.61;51.89
36932;BME280;22847;42.654;23.370;2023-05-20T12:42:53;94658.69;;;18.80;51.46
36932;BME280;22847;42.654;23.370;2023-05-20T12:45:19;94823.91;;;19.03;52.90
36932;BME280;22847;42.654;23.370;2023-05-20T12:47:44;94784.03;;;19.33;52.77
36932;BME280;22847;42.654;23.370;2023-05-20T12:50:10;94751.69;;;19.31;52.63
36932;BME280;22847;42.654;23.370;2023-05-20T12:52:35;94798.34;;;19.79;52.84
36932;BME280;22847;42.654;23.370;2023-05-20T12:55:01;94813.75;;;19.69;52.65
36932;BME280;22847;42.654;23.370;2023-05-20T12:57:26;94776.53;;;19.71;52.11
36932;BME280;22847;42.654;23.370;2023-05-20T12:59:52;94767.09;;;20.22;51.25
36932;BME280;22847;42.654;23.370;2023-05-20T13:02:17;94630.22;;;19.90;49.61